createdAt,value
2023-01-17T00:01:28.499Z,90063.19
2023-01-17T00:05:16.120Z,90071.64
2023-01-17T00:09:03.610Z,90067.42
2023-01-17T00:12:52.904Z,90060.34
2023-01-17T00:16:42.066Z,90061.27
2023-01-17T00:20:29.411Z,90063.33
2023-01-17T00:24:16.954Z,90068.56
2023-01-17T00:27:45.938Z,90077.20
2023-01-17T00:31:14.912Z,90077.31
2023-01-17T00:34:43.807Z,90090.66
2023-01-17T00:38:24.402Z,90079.33
2023-01-17T00:41:53.316Z,90073.62
2023-01-17T00:45:39.642Z,90078.05
2023-01-17T00:49:17.243Z,90080.42
2023-01-17T00:53:04.820Z,90076.73
2023-01-17T00:56:52.250Z,90073.52
2023-01-17T01:00:39.685Z,90067.95
2023-01-17T01:04:27.454Z,90066.78
2023-01-17T01:08:14.984Z,90066.94
2023-01-17T01:12:05.000Z,90066.90
2023-01-17T01:15:50.407Z,90058.80
2023-01-17T01:19:38.077Z,90052.65
2023-01-17T01:23:25.577Z,90050.70
2023-01-17T01:27:05.495Z,90042.02
2023-01-17T01:30:52.855Z,90045.89
2023-01-17T01:34:42.154Z,90045.88
2023-01-17T01:38:31.400Z,90044.58
2023-01-17T01:42:20.559Z,90036.45
2023-01-17T01:46:15.630Z,90025.61
2023-01-17T01:50:13.907Z,90019.54
2023-01-17T01:53:55.681Z,90021.11
2023-01-17T01:57:44.960Z,90012.91
2023-01-17T02:01:34.438Z,90006.66
2023-01-17T02:05:22.604Z,90001.39
2023-01-17T02:09:11.780Z,90005.05
2023-01-17T02:13:00.698Z,90005.05
2023-01-17T02:16:58.750Z,90003.89
2023-01-17T02:20:40.671Z,89998.28
2023-01-17T02:24:53.721Z,89988.68
2023-01-17T02:28:51.910Z,89977.87
2023-01-17T02:32:50.064Z,89965.72
2023-01-17T02:36:42.148Z,89971.34
2023-01-17T02:40:36.966Z,89980.95
2023-01-17T02:44:05.827Z,89955.95
2023-01-17T02:47:57.864Z,89946.33
2023-01-17T02:51:59.077Z,89961.70
2023-01-17T02:55:53.891Z,89960.95
2023-01-17T02:59:20.960Z,89948.21
2023-01-17T03:03:19.078Z,89953.52
2023-01-17T03:07:14.483Z,89946.90
2023-01-17T03:11:03.712Z,89962.98
2023-01-17T03:14:48.453Z,89970.45
2023-01-17T03:18:17.285Z,89969.77
2023-01-17T03:22:06.632Z,89992.70
2023-01-17T03:25:55.792Z,89986.20
2023-01-17T03:29:44.996Z,89975.80
2023-01-17T03:33:34.308Z,89989.06
2023-01-17T03:37:23.586Z,89987.33
2023-01-17T03:41:13.006Z,89989.05
2023-01-17T03:45:02.250Z,89995.13
2023-01-17T03:48:51.264Z,89995.79
2023-01-17T03:52:40.502Z,89991.31
2023-01-17T03:56:29.653Z,89990.87
2023-01-17T04:00:18.824Z,89991.31
2023-01-17T04:04:08.064Z,89982.51
2023-01-17T04:07:57.385Z,89982.19
2023-01-17T04:11:46.708Z,89977.31
2023-01-17T04:15:35.877Z,89979.70
2023-01-17T04:19:25.047Z,89974.94
2023-01-17T04:23:12.641Z,89970.38
2023-01-17T04:27:01.821Z,89975.55
2023-01-17T04:30:42.655Z,89983.51
2023-01-17T04:34:31.853Z,89984.79
2023-01-17T04:38:21.137Z,89991.14
2023-01-17T04:42:02.898Z,89986.06
2023-01-17T04:45:52.239Z,89980.89
2023-01-17T04:49:43.354Z,89976.80
2023-01-17T04:53:25.842Z,89970.55
2023-01-17T04:57:08.201Z,89973.23
2023-01-17T05:00:57.563Z,89967.50
2023-01-17T05:04:46.981Z,89973.15
2023-01-17T05:08:29.055Z,89978.73
2023-01-17T05:12:16.706Z,89987.20
2023-01-17T05:16:06.153Z,89994.95
2023-01-17T05:19:55.375Z,90000.62
2023-01-17T05:23:43.281Z,90007.34
2023-01-17T05:27:32.593Z,90028.81
2023-01-17T05:31:21.917Z,90035.98
2023-01-17T05:35:11.433Z,90038.48
2023-01-17T05:39:01.533Z,90033.05
2023-01-17T05:42:50.839Z,90028.16
2023-01-17T05:46:38.802Z,90020.25
2023-01-17T05:50:26.549Z,90019.84
2023-01-17T05:54:15.750Z,90024.09
2023-01-17T05:57:50.149Z,90015.04
2023-01-17T06:01:19.011Z,90018.89
2023-01-17T06:05:08.357Z,90015.00
2023-01-17T06:08:57.546Z,90017.15
2023-01-17T06:12:46.788Z,90017.23
2023-01-17T06:16:35.926Z,90017.50
2023-01-17T06:20:25.061Z,90006.40
2023-01-17T06:24:13.982Z,90010.02
2023-01-17T06:28:01.936Z,89997.45
2023-01-17T06:31:48.142Z,90001.73
2023-01-17T06:35:37.275Z,90008.13
2023-01-17T06:39:26.485Z,90009.28
2023-01-17T06:43:15.691Z,90004.80
2023-01-17T06:46:57.861Z,90001.88
2023-01-17T06:50:47.425Z,90010.34
2023-01-17T06:54:36.643Z,89999.46
2023-01-17T06:58:25.874Z,90003.20
2023-01-17T07:02:15.105Z,89996.85
2023-01-17T07:06:04.416Z,89997.20
2023-01-17T07:09:53.771Z,89986.42
2023-01-17T07:13:36.758Z,89986.25
2023-01-17T07:17:25.958Z,89996.16
2023-01-17T07:21:15.165Z,89998.18
2023-01-17T07:25:04.344Z,89998.84
2023-01-17T07:28:56.471Z,90002.15
2023-01-17T07:32:40.956Z,90003.84
2023-01-17T07:36:12.756Z,90006.65
2023-01-17T07:40:01.938Z,90009.51
2023-01-17T07:43:51.163Z,89999.67
2023-01-17T07:47:40.285Z,90000.66
2023-01-17T07:51:32.098Z,89994.23
2023-01-17T07:55:13.830Z,89993.27
2023-01-17T07:59:03.063Z,89996.77
2023-01-17T08:02:52.206Z,90005.87
2023-01-17T08:06:41.362Z,90022.91
2023-01-17T08:10:30.562Z,90028.21
2023-01-17T08:14:12.414Z,90029.84
2023-01-17T08:18:07.330Z,90030.05
2023-01-17T08:21:56.528Z,90042.17
2023-01-17T08:25:45.831Z,90036.58
2023-01-17T08:29:26.361Z,90036.66
2023-01-17T08:33:15.523Z,90036.59
2023-01-17T08:36:56.571Z,90039.27
2023-01-17T08:40:31.509Z,90044.14
2023-01-17T08:44:15.428Z,90037.15
2023-01-17T08:47:57.078Z,90056.41
2023-01-17T08:51:26.401Z,90040.61
2023-01-17T08:54:50.404Z,90057.46
2023-01-17T08:58:19.194Z,90054.17
2023-01-17T09:01:58.451Z,90051.45
2023-01-17T09:05:20.645Z,90051.61
2023-01-17T09:08:54.142Z,90058.85
2023-01-17T09:12:27.221Z,90063.20
2023-01-17T09:16:09.142Z,90055.09
2023-01-17T09:19:38.483Z,90060.05
2023-01-17T09:23:26.548Z,90043.39
2023-01-17T09:27:08.209Z,90041.92
2023-01-17T09:30:48.783Z,90049.52
2023-01-17T09:34:31.435Z,90038.91
2023-01-17T09:38:10.332Z,90043.31
2023-01-17T09:42:00.912Z,90053.04
2023-01-17T09:45:49.989Z,90061.34
2023-01-17T09:49:31.828Z,90055.58
2023-01-17T09:53:12.828Z,90056.23
2023-01-17T09:57:16.345Z,90083.98
2023-01-17T10:01:11.362Z,90068.36
2023-01-17T10:04:59.246Z,90074.59
2023-01-17T10:08:41.061Z,90080.15
2023-01-17T10:12:39.174Z,90080.95
2023-01-17T10:16:25.716Z,90082.33
2023-01-17T10:20:26.816Z,90075.62
2023-01-17T10:24:17.354Z,90072.87
2023-01-17T10:28:03.371Z,90075.31
2023-01-17T10:31:52.591Z,90079.70
2023-01-17T10:35:36.024Z,90075.33
2023-01-17T10:39:25.241Z,90075.81
2023-01-17T10:42:50.899Z,90069.14
2023-01-17T10:46:41.780Z,90069.15
2023-01-17T10:50:11.853Z,90074.80
2023-01-17T10:54:21.905Z,90077.27
2023-01-17T10:58:01.773Z,90072.58
2023-01-17T11:01:42.152Z,90083.52
2023-01-17T11:05:31.849Z,90083.33
2023-01-17T11:09:28.157Z,90096.34
2023-01-17T11:13:28.064Z,90105.63
2023-01-17T11:17:23.239Z,90118.73
2023-01-17T11:21:21.296Z,90111.31
2023-01-17T11:25:16.490Z,90110.14
2023-01-17T11:29:08.459Z,90126.05
2023-01-17T11:33:03.671Z,90124.89
2023-01-17T11:36:58.647Z,90121.80
2023-01-17T11:40:45.289Z,90116.27
2023-01-17T11:44:30.350Z,90124.30
2023-01-17T11:48:19.625Z,90125.26
2023-01-17T11:51:56.184Z,90116.45
2023-01-17T11:55:26.141Z,90118.04
2023-01-17T11:59:15.305Z,90112.54
2023-01-17T12:03:16.847Z,90095.23
2023-01-17T12:07:09.058Z,90090.04
2023-01-17T12:11:00.992Z,90122.60
2023-01-17T12:15:02.207Z,90078.90
2023-01-17T12:18:59.548Z,90103.32
2023-01-17T12:22:54.595Z,90083.02
2023-01-17T12:26:37.236Z,90096.88
2023-01-17T12:30:42.953Z,90081.45
2023-01-17T12:34:42.985Z,90077.52
2023-01-17T12:38:33.588Z,90079.45
2023-01-17T12:42:37.854Z,90073.23
2023-01-17T12:46:27.159Z,90084.13
2023-01-17T12:50:18.875Z,90080.50
2023-01-17T12:54:23.057Z,90092.15
2023-01-17T12:58:13.282Z,90093.48
2023-01-17T13:02:05.338Z,90091.02
2023-01-17T13:05:56.113Z,90086.76
2023-01-17T13:09:41.468Z,90081.18
2023-01-17T13:13:26.887Z,90086.59
2023-01-17T13:17:02.745Z,90093.58
2023-01-17T13:20:59.425Z,90094.48
2023-01-17T13:25:02.252Z,90100.22
2023-01-17T13:29:02.232Z,90095.62
2023-01-17T13:33:18.098Z,90091.17
2023-01-17T13:37:08.766Z,90085.66
2023-01-17T13:40:50.070Z,90087.06
2023-01-17T13:44:42.160Z,90095.63
2023-01-17T13:48:31.501Z,90097.46
2023-01-17T13:52:23.541Z,90074.84
2023-01-17T13:56:24.783Z,90076.39
2023-01-17T14:00:13.952Z,90077.27
2023-01-17T14:04:02.539Z,90077.95
2023-01-17T14:07:47.023Z,90085.31
2023-01-17T14:11:31.307Z,90083.48
2023-01-17T14:15:05.770Z,90087.15
2023-01-17T14:18:58.096Z,90093.99
2023-01-17T14:22:50.253Z,90099.48
2023-01-17T14:26:41.319Z,90114.42
2023-01-17T14:30:57.318Z,90136.83
2023-01-17T14:34:52.128Z,90148.14
2023-01-17T14:38:34.269Z,90147.33
2023-01-17T14:42:22.054Z,90146.20
2023-01-17T14:46:04.607Z,90145.13
2023-01-17T14:49:57.815Z,90139.54
2023-01-17T14:53:53.267Z,90136.70
2023-01-17T14:57:34.990Z,90138.65
2023-01-17T15:01:24.450Z,90130.28
2023-01-17T15:05:22.523Z,90134.39
2023-01-17T15:09:11.804Z,90141.09
2023-01-17T15:13:01.182Z,90144.93
2023-01-17T15:16:59.043Z,90153.48
2023-01-17T15:20:48.358Z,90165.06
2023-01-17T15:24:40.289Z,90171.08
2023-01-17T15:28:19.542Z,90180.34
2023-01-17T15:32:17.647Z,90180.45
2023-01-17T15:35:42.312Z,90185.08
2023-01-17T15:39:37.354Z,90194.29
2023-01-17T15:43:31.473Z,90192.25
2023-01-17T15:47:23.675Z,90186.13
2023-01-17T15:51:21.883Z,90179.13
2023-01-17T15:55:09.385Z,90177.22
2023-01-17T15:59:07.226Z,90182.86
2023-01-17T16:02:54.595Z,90171.50
2023-01-17T16:06:43.801Z,90162.81
2023-01-17T16:10:31.794Z,90159.42
2023-01-17T16:14:14.614Z,90166.60
2023-01-17T16:18:03.891Z,90173.69
2023-01-17T16:22:02.297Z,90167.27
2023-01-17T16:25:54.102Z,90156.88
2023-01-17T16:29:35.636Z,90157.32
2023-01-17T16:33:24.914Z,90152.33
2023-01-17T16:37:13.822Z,90169.75
2023-01-17T16:41:01.654Z,90186.34
2023-01-17T16:44:50.569Z,90193.39
2023-01-17T16:48:42.508Z,90185.53
2023-01-17T16:52:21.667Z,90182.42
2023-01-17T16:56:10.629Z,90180.41
2023-01-17T16:59:52.668Z,90173.62
2023-01-17T17:03:41.901Z,90154.96
2023-01-17T17:07:30.873Z,90157.02
2023-01-17T17:11:20.058Z,90148.27
2023-01-17T17:15:09.258Z,90158.46
2023-01-17T17:18:46.913Z,90156.44
2023-01-17T17:22:36.092Z,90155.72
2023-01-17T17:26:25.287Z,90150.83
2023-01-17T17:30:01.683Z,90148.84
2023-01-17T17:33:43.017Z,90154.08
2023-01-17T17:37:32.310Z,90150.48
2023-01-17T17:41:13.799Z,90150.64
2023-01-17T17:45:02.987Z,90157.54
2023-01-17T17:48:52.781Z,90157.33
2023-01-17T17:52:47.543Z,90150.71
2023-01-17T17:56:16.362Z,90157.96
2023-01-17T18:00:05.557Z,90143.48
2023-01-17T18:03:54.816Z,90145.27
2023-01-17T18:07:43.710Z,90144.79
2023-01-17T18:11:31.770Z,90151.52
2023-01-17T18:15:13.990Z,90152.67
2023-01-17T18:19:04.275Z,90158.05
2023-01-17T18:22:53.572Z,90159.52
2023-01-17T18:26:42.833Z,90147.67
2023-01-17T18:30:23.375Z,90146.70
2023-01-17T18:34:12.578Z,90141.22
2023-01-17T18:38:01.771Z,90141.02
2023-01-17T18:41:51.020Z,90139.77
2023-01-17T18:45:40.524Z,90134.24
2023-01-17T18:49:22.572Z,90130.59
2023-01-17T18:53:11.787Z,90134.16
2023-01-17T18:57:01.109Z,90136.33
2023-01-17T19:00:50.637Z,90142.00
2023-01-17T19:04:25.559Z,90150.44
2023-01-17T19:08:13.744Z,90157.45
2023-01-17T19:12:03.173Z,90166.61
2023-01-17T19:15:52.481Z,90171.14
2023-01-17T19:19:41.886Z,90174.77
2023-01-17T19:23:31.063Z,90173.82
2023-01-17T19:27:20.285Z,90157.09
2023-01-17T19:31:09.538Z,90163.02
2023-01-17T19:34:58.801Z,90156.66
2023-01-17T19:39:03.000Z,90146.82
2023-01-17T19:42:53.609Z,90136.30
2023-01-17T19:46:42.885Z,90130.83
2023-01-17T19:50:32.220Z,90133.25
2023-01-17T19:54:21.405Z,90136.50
2023-01-17T19:58:12.499Z,90122.59
2023-01-17T20:02:05.029Z,90125.63
2023-01-17T20:05:54.339Z,90116.36
2023-01-17T20:09:42.165Z,90103.88
2023-01-17T20:13:31.298Z,90085.52
2023-01-17T20:17:13.268Z,90075.39
2023-01-17T20:21:02.476Z,90076.77
2023-01-17T20:24:50.114Z,90078.60
2023-01-17T20:28:39.456Z,90076.30
2023-01-17T20:32:28.736Z,90062.55
2023-01-17T20:36:17.862Z,90079.45
2023-01-17T20:39:59.557Z,90063.15
2023-01-17T20:43:48.739Z,90060.83
2023-01-17T20:47:36.592Z,90066.65
2023-01-17T20:51:24.422Z,90056.98
2023-01-17T20:55:13.691Z,90043.36
2023-01-17T20:59:00.097Z,90026.93
2023-01-17T21:02:49.444Z,90017.18
2023-01-17T21:06:41.412Z,90015.92
2023-01-17T21:10:30.544Z,90020.27
2023-01-17T21:14:17.102Z,90033.27
2023-01-17T21:18:06.268Z,90036.79
2023-01-17T21:21:55.623Z,90040.11
2023-01-17T21:25:44.837Z,90031.24
2023-01-17T21:29:32.625Z,90025.86
2023-01-17T21:33:21.543Z,90031.31
2023-01-17T21:37:10.986Z,90033.27
2023-01-17T21:41:00.218Z,90019.45
2023-01-17T21:44:42.061Z,90033.77
2023-01-17T21:48:34.236Z,90019.91
2023-01-17T21:52:23.410Z,90000.13
2023-01-17T21:56:10.881Z,89999.32
2023-01-17T22:00:00.140Z,89994.82
2023-01-17T22:03:49.292Z,89983.39
2023-01-17T22:07:27.391Z,89982.56
2023-01-17T22:11:16.719Z,89992.65
2023-01-17T22:15:05.856Z,89985.56
2023-01-17T22:18:54.637Z,89983.80
2023-01-17T22:22:36.799Z,89992.89
2023-01-17T22:26:25.993Z,89989.94
2023-01-17T22:30:07.874Z,89978.02
2023-01-17T22:33:57.164Z,89979.37
2023-01-17T22:37:46.363Z,89955.35
2023-01-17T22:41:35.587Z,89942.30
2023-01-17T22:45:11.843Z,89939.35
2023-01-17T22:49:01.057Z,89931.49
2023-01-17T22:52:50.287Z,89926.39
2023-01-17T22:56:39.554Z,89920.70
2023-01-17T23:00:28.815Z,89919.20
2023-01-17T23:04:17.977Z,89920.90
2023-01-17T23:08:07.163Z,89928.80
2023-01-17T23:11:59.717Z,89910.76
2023-01-17T23:15:40.125Z,89918.97
2023-01-17T23:19:44.504Z,89921.11
2023-01-17T23:23:34.654Z,89917.64
2023-01-17T23:27:22.040Z,89933.33
2023-01-17T23:31:11.919Z,89930.76
2023-01-17T23:35:01.223Z,89932.16
2023-01-17T23:38:53.374Z,89931.75
2023-01-17T23:42:40.518Z,89927.67
2023-01-17T23:46:28.705Z,89925.50
2023-01-17T23:50:17.891Z,89923.83
2023-01-17T23:54:06.896Z,89923.47
2023-01-17T23:57:48.909Z,89920.35
